Terminal Aerodrome Forecast
Issued by NWS

Home | Current Version | Previous Version | Text Only | Print | Product List | Glossary On
Versions: 1 2 3 4 5 6 7 8 9 10 11 12 13 14 15 16 17 18 19 20 21 22 23 24
000
FTUS46 KMFR 291146
TAFOTH
TAF
KOTH 291146Z 2912/3012 35006KT P6SM OVC008
     FM291800 34010KT P6SM OVC012
     FM292100 34013G19KT P6SM BKN015
     FM300300 36006KT 4SM BR OVC007=

USA.gov is the U.S. government's official web portal to all federal, state and local government web resources and services.